Time,TemperatureF,DewpointF,PressureIn,WindDirection,WindDirectionDegrees,WindSpeedMPH,WindSpeedGustMPH,Humidity,HourlyPrecipIn,Conditions,Clouds,dailyrainin,SoftwareType,DateUTC
2013-05-09 00:00:00,49.0,-99.9,-100.00,North,-999,-999.0,-999.0,-999,-99.99,,,-99.99,,2013-05-09 07:00:00,
2013-05-09 00:52:00,49.0,-99.9,-100.00,North,-999,-999.0,-999.0,-999,-99.99,,,-99.99,,2013-05-09 07:52:00,
2013-05-09 01:00:00,50.0,-99.9,-100.00,WSW,254,6.0,7.0,-999,-99.99,,,0.00,,2013-05-09 08:00:00,
2013-05-09 02:00:00,49.0,-99.9,-100.00,West,279,6.0,7.0,-999,-99.99,,,0.00,,2013-05-09 09:00:00,
2013-05-09 03:00:00,49.0,-99.9,-100.00,WNW,292,7.0,8.0,-999,-99.99,,,0.00,,2013-05-09 10:00:00,
2013-05-09 03:53:00,49.0,-99.9,-100.00,WNW,292,7.0,8.0,-999,-99.99,,,0.00,,2013-05-09 10:53:00,
2013-05-09 06:00:00,47.0,-99.9,-100.00,WNW,298,7.0,8.0,-999,-99.99,,,0.00,,2013-05-09 13:00:00,
2013-05-09 06:52:00,47.0,-99.9,-100.00,WNW,298,7.0,8.0,-999,-99.99,,,0.00,,2013-05-09 13:52:00,
2013-05-09 07:00:00,47.0,-99.9,-100.00,NW,304,7.0,9.0,-999,-99.99,,,-99.99,,2013-05-09 14:00:00,
2013-05-09 08:00:00,48.0,-99.9,-100.00,WNW,284,7.0,9.0,-999,-99.99,,,0.00,,2013-05-09 15:00:00,
2013-05-09 09:00:00,50.0,-99.9,-100.00,WNW,297,7.0,8.0,-999,-99.99,,,0.00,,2013-05-09 16:00:00,
2013-05-09 10:00:00,53.0,-99.9,-100.00,WSW,250,6.0,8.0,-999,-99.99,,,0.00,,2013-05-09 17:00:00,
2013-05-09 11:00:00,58.0,-99.9,-100.00,WNW,289,4.0,7.0,-999,-99.99,,,0.00,,2013-05-09 18:00:00,
2013-05-09 12:00:00,62.0,-99.9,-100.00,SW,230,2.0,4.0,-999,-99.99,,,0.00,,2013-05-09 19:00:00,
2013-05-09 13:00:00,64.0,-99.9,-100.00,SSW,197,1.0,4.0,-999,-99.99,,,-99.99,,2013-05-09 20:00:00,
2013-05-09 13:42:00,64.0,-99.9,-100.00,SSW,197,1.0,4.0,-999,-99.99,,,-99.99,,2013-05-09 20:42:00,
2013-05-09 13:52:00,64.0,-99.9,-100.00,SSW,197,1.0,4.0,-999,-99.99,,,-99.99,,2013-05-09 20:52:00,
2013-05-09 14:00:00,68.0,-99.9,-100.00,SSE,152,1.0,3.0,-999,-99.99,,,-99.99,,2013-05-09 21:00:00,
2013-05-09 15:00:00,68.0,-99.9,-100.00,South,180,1.0,3.0,-999,-99.99,,,0.00,,2013-05-09 22:00:00,
2013-05-09 16:00:00,67.0,-99.9,-100.00,South,186,1.0,4.0,-999,-99.99,,,0.00,,2013-05-09 23:00:00,
2013-05-09 17:00:00,64.0,-99.9,-100.00,WSW,251,1.0,3.0,-999,-99.99,,,0.00,,2013-05-10 00:00:00,
2013-05-09 18:00:00,60.0,-99.9,-100.00,WSW,257,1.0,3.0,-999,-99.99,,,-99.99,,2013-05-10 01:00:00,
2013-05-09 19:00:00,58.0,-99.9,-100.00,West,259,3.0,5.0,-999,-99.99,,,0.00,,2013-05-10 02:00:00,
2013-05-09 20:00:00,53.0,-99.9,-100.00,North,-999,-999.0,-999.0,-999,-99.99,,,0.00,,2013-05-10 03:00:00,
2013-05-09 21:00:00,52.0,-99.9,-100.00,WNW,291,4.0,5.0,-999,-99.99,,,-99.99,,2013-05-10 04:00:00,
2013-05-09 22:00:00,51.0,-99.9,-100.00,West,278,4.0,7.0,-999,-99.99,,,0.00,,2013-05-10 05:00:00,
2013-05-09 23:00:00,55.0,-99.9,-100.00,WNW,292,4.0,5.0,-999,-99.99,,,0.00,,2013-05-10 06:00:00,